Time;durP1;ratioP1;P1;durP2;ratioP2;P2;SDS_P1;SDS_P2;PMS_P1;PMS_P2;Temp;Humidity;BMP_temperature;BMP_pressure;BME280_temperature;BME280_humidity;BME280_pressure;Samples;Min_cycle;Max_cycle;Signal;HPM_P1;HPM_P2
2022/04/01 00:01:37;;;;;;;;;;;;;;;6.07;64.48;100846.78;4422102;32;19980;-69
2022/04/01 00:04:03;;;;;;;;;;;;;;;6.04;65.80;100851.19;4419908;32;19961;-69
2022/04/01 00:06:28;;;;;;;;;;;;;;;6.15;65.55;100856.75;4421283;32;20717;-69
2022/04/01 00:08:54;;;;;;;;;;;;;;;5.90;65.86;100850.44;4416477;32;20009;-69
2022/04/01 00:11:20;;;;;;;;;;;;;;;5.89;66.33;100854.44;4415057;32;19983;-69
2022/04/01 00:13:45;;;;;;;;;;;;;;;5.67;66.59;100861.25;4419542;32;19987;-69
2022/04/01 00:16:11;;;;;;;;;;;;;;;5.77;66.25;100855.62;4416731;32;20402;-69
2022/04/01 00:18:36;;;;;;;;;;;;;;;5.83;66.81;100862.44;4414929;32;20380;-69
2022/04/01 00:21:02;;;;;;;;;;;;;;;5.68;66.75;100862.84;4420036;32;19950;-69
2022/04/01 00:23:28;;;;;;;;;;;;;;;5.72;66.90;100867.22;4419430;32;19953;-69
2022/04/01 00:25:54;;;;;;;;;;;;;;;5.85;67.03;100864.81;4416873;32;20012;-69
2022/04/01 00:28:19;;;;;;;;;;;;;;;5.74;67.52;100864.03;4420091;32;19990;-69
2022/04/01 00:30:45;;;;;;;;;;;;;;;5.66;67.61;100866.06;4416577;32;20022;-69
2022/04/01 00:33:11;;;;;;;;;;;;;;;5.78;67.68;100862.84;4402798;32;19954;-69
2022/04/01 00:35:38;;;;;;;;;;;;;;;5.57;68.65;100862.06;4421875;32;20308;-69
2022/04/01 00:38:04;;;;;;;;;;;;;;;5.59;68.69;100868.06;4420109;32;20245;-69
2022/04/01 00:40:30;;;;;;;;;;;;;;;5.67;69.05;100870.44;4420505;32;19998;-69
2022/04/01 00:42:55;;;;;;;;;;;;;;;5.68;69.25;100872.00;4420434;32;19985;-69
2022/04/01 00:45:21;;;;;;;;;;;;;;;5.53;68.95;100869.66;4419460;32;20116;-69
2022/04/01 00:47:47;;;;;;;;;;;;;;;5.64;68.46;100867.63;4419263;32;19968;-69
2022/04/01 00:50:12;;;;;;;;;;;;;;;5.44;69.02;100867.28;4422683;32;20315;-69
2022/04/01 00:52:38;;;;;;;;;;;;;;;5.49;68.87;100868.88;4404929;32;19975;-68
2022/04/01 00:55:05;;;;;;;;;;;;;;;5.49;69.18;100875.25;4422642;32;19997;-68
2022/04/01 00:57:31;;;;;;;;;;;;;;;5.57;69.06;100871.25;4417217;32;20387;-69
2022/04/01 00:59:57;;;;;;;;;;;;;;;5.35;69.76;100863.31;4418322;32;20017;-69
2022/04/01 01:02:23;;;;;;;;;;;;;;;5.38;69.12;100871.69;4405194;32;20054;-69
2022/04/01 01:04:48;;;;;;;;;;;;;;;5.08;71.01;100865.72;4411322;32;19966;-69
2022/04/01 01:07:14;;;;;;;;;;;;;;;5.15;70.88;100867.69;4411474;32;20185;-69
2022/04/01 01:09:40;;;;;;;;;;;;;;;5.15;70.99;100864.91;4410545;32;19962;-69
2022/04/01 01:12:06;;;;;;;;;;;;;;;5.24;70.71;100862.50;4403757;32;20042;-68
2022/04/01 01:14:36;;;;;;;;;;;;;;;5.19;70.95;100862.94;4410949;32;19994;-68
2022/04/01 01:17:03;;;;;;;;;;;;;;;5.15;70.23;100850.94;4409212;32;19974;-68
2022/04/01 01:19:30;;;;;;;;;;;;;;;5.14;69.96;100854.94;4408159;32;20379;-68
2022/04/01 01:21:56;;;;;;;;;;;;;;;5.01;70.20;100853.75;4408856;32;20032;-68
2022/04/01 01:24:37;;;;;;;;;;;;;;;5.02;70.07;100863.72;4409682;32;20335;-68
2022/04/01 01:27:06;;;;;;;;;;;;;;;5.08;69.82;100857.34;4409101;32;19997;-68
2022/04/01 01:29:32;;;;;;;;;;;;;;;4.97;70.36;100856.53;4408100;32;20044;-68
2022/04/01 01:31:59;;;;;;;;;;;;;;;5.10;70.29;100857.75;4408575;32;19958;-68
2022/04/01 01:34:24;;;;;;;;;;;;;;;5.09;70.30;100855.38;4409446;32;19954;-68
2022/04/01 01:36:51;;;;;;;;;;;;;;;5.10;70.38;100854.16;4409052;32;20281;-68
2022/04/01 01:39:17;;;;;;;;;;;;;;;4.96;70.24;100852.16;4410015;32;19964;-68
2022/04/01 01:41:43;;;;;;;;;;;;;;;4.94;70.17;100854.53;4408354;32;19952;-68
2022/04/01 01:44:10;;;;;;;;;;;;;;;4.90;70.38;100847.37;4408976;32;20011;-68
2022/04/01 01:46:36;;;;;;;;;;;;;;;4.87;70.87;100859.31;4410301;32;20314;-68
2022/04/01 01:49:01;;;;;;;;;;;;;;;4.96;70.04;100854.94;4408485;32;19985;-68
2022/04/01 01:54:45;;;;;;;;;;;;;;;4.98;69.81;100843.41;4407782;32;19993;-68
2022/04/01 01:56:59;;;;;;;;;;;;;;;5.02;69.49;100845.00;4410058;32;20299;-68
2022/04/01 01:59:26;;;;;;;;;;;;;;;5.08;69.52;100840.59;4406577;32;20023;-68
2022/04/01 02:01:52;;;;;;;;;;;;;;;4.89;69.77;100838.22;4409008;32;19958;-68
2022/04/01 02:04:18;;;;;;;;;;;;;;;4.75;70.13;100840.22;4408496;32;20323;-68
2022/04/01 02:06:44;;;;;;;;;;;;;;;4.83;69.69;100836.22;4408966;32;19953;-68
2022/04/01 02:09:09;;;;;;;;;;;;;;;4.78;69.80;100839.38;4407437;32;20016;-68
2022/04/01 02:11:37;;;;;;;;;;;;;;;4.54;70.23;100843.75;4408424;32;20126;-68
2022/04/01 02:14:03;;;;;;;;;;;;;;;4.34;70.83;100844.50;4405242;32;19957;-68
2022/04/01 02:16:29;;;;;;;;;;;;;;;4.30;70.93;100858.44;4408381;32;20005;-68
2022/04/01 02:18:54;;;;;;;;;;;;;;;4.35;70.95;100866.38;4407831;32;19981;-68
2022/04/01 02:21:22;;;;;;;;;;;;;;;4.22;71.54;100856.81;4408408;32;19957;-68
2022/04/01 02:23:48;;;;;;;;;;;;;;;4.26;71.27;100865.97;4408753;32;19973;-68
2022/04/01 02:26:14;;;;;;;;;;;;;;;4.18;71.61;100861.56;4408734;32;19965;-68
2022/04/01 02:28:41;;;;;;;;;;;;;;;4.15;71.77;100865.91;4409283;32;19965;-69
2022/04/01 02:31:06;;;;;;;;;;;;;;;4.18;71.62;100862.34;4408079;32;20420;-69
2022/04/01 02:33:35;;;;;;;;;;;;;;;4.10;72.05;100863.53;4408292;32;19997;-69
2022/04/01 02:36:02;;;;;;;;;;;;;;;4.14;72.26;100875.47;4409494;32;19942;-69
2022/04/01 02:38:29;;;;;;;;;;;;;;;4.09;72.43;100872.28;4407643;32;19992;-69
2022/04/01 02:40:55;;;;;;;;;;;;;;;4.16;71.94;100872.28;4407574;32;19958;-69
2022/04/01 02:43:24;;;;;;;;;;;;;;;4.06;72.63;100871.06;4407579;32;19954;-69
2022/04/01 02:45:49;;;;;;;;;;;;;;;4.32;71.82;100883.88;4407396;32;19955;-69
2022/04/01 02:48:16;;;;;;;;;;;;;;;4.50;71.08;100881.16;4400455;32;19989;-69
2022/04/01 02:50:43;;;;;;;;;;;;;;;4.52;70.82;100884.34;4411115;32;19957;-69
2022/04/01 02:53:08;;;;;;;;;;;;;;;4.51;70.84;100879.97;4411086;32;19954;-69
2022/04/01 02:55:34;;;;;;;;;;;;;;;4.61;70.54;100877.22;4410673;32;19984;-69
2022/04/01 02:57:59;;;;;;;;;;;;;;;4.69;70.45;100870.44;4411102;32;20027;-69
2022/04/01 03:00:26;;;;;;;;;;;;;;;4.65;70.08;100872.44;4410131;32;20004;-69
2022/04/01 03:02:51;;;;;;;;;;;;;;;4.85;69.55;100887.59;4413101;32;20023;-69
2022/04/01 03:05:17;;;;;;;;;;;;;;;4.77;69.50;100888.78;4418875;32;19991;-69
2022/04/01 03:07:44;;;;;;;;;;;;;;;4.91;69.13;100891.59;4423252;32;19949;-69
2022/04/01 03:10:10;;;;;;;;;;;;;;;4.91;68.46;100890.81;4417408;32;19961;-69
2022/04/01 03:12:38;;;;;;;;;;;;;;;4.76;69.20;100890.00;4419251;32;19954;-69
2022/04/01 03:15:04;;;;;;;;;;;;;;;4.61;69.10;100890.34;4419666;32;20410;-69
2022/04/01 03:17:31;;;;;;;;;;;;;;;4.52;68.38;100890.72;4416887;32;20023;-69
2022/04/01 03:19:56;;;;;;;;;;;;;;;4.39;69.36;100886.72;4419558;32;20094;-68
2022/04/01 03:22:22;;;;;;;;;;;;;;;4.14;70.48;100886.59;4419322;32;20005;-68
2022/04/01 03:24:47;;;;;;;;;;;;;;;4.36;69.73;100884.72;4420959;32;19960;-68
2022/04/01 03:27:13;;;;;;;;;;;;;;;4.26;70.09;100891.03;4404243;32;20421;-69
2022/04/01 03:29:39;;;;;;;;;;;;;;;4.34;69.76;100891.84;4416972;32;19965;-69
2022/04/01 03:32:05;;;;;;;;;;;;;;;4.31;69.75;100890.66;4419010;32;19977;-69
2022/04/01 03:34:32;;;;;;;;;;;;;;;4.28;70.21;100894.22;4421502;32;19969;-69
2022/04/01 03:36:57;;;;;;;;;;;;;;;4.17;70.13;100892.59;4419768;32;19964;-70
2022/04/01 03:39:24;;;;;;;;;;;;;;;4.35;69.92;100899.03;4416215;32;19985;-69
2022/04/01 03:41:50;;;;;;;;;;;;;;;4.47;69.48;100907.81;4421287;32;20036;-69
2022/04/01 03:44:17;;;;;;;;;;;;;;;4.38;69.81;100904.59;4417846;32;19989;-69
2022/04/01 03:49:22;;;;;;;;;;;;;;;4.63;68.36;100921.41;3953273;32;15722511;-69
2022/04/01 03:51:49;;;;;;;;;;;;;;;4.63;68.36;100921.41;4436201;32;20357;-69
2022/04/01 03:54:15;;;;;;;;;;;;;;;4.25;69.38;100927.63;4429084;32;20025;-69
2022/04/01 03:56:43;;;;;;;;;;;;;;;4.24;69.56;100915.72;4433078;32;19949;-69
2022/04/01 03:59:12;;;;;;;;;;;;;;;4.25;69.66;100916.50;4429083;32;19954;-69
2022/04/01 04:01:38;;;;;;;;;;;;;;;4.35;69.06;100924.87;4430124;32;20010;-69
2022/04/01 04:04:04;;;;;;;;;;;;;;;4.33;68.77;100918.13;4431333;32;19962;-69
2022/04/01 04:06:32;;;;;;;;;;;;;;;4.36;69.08;100926.50;4430149;32;20554;-69
2022/04/01 04:08:58;;;;;;;;;;;;;;;4.27;69.57;100934.44;4429493;32;20039;-69
2022/04/01 04:11:24;;;;;;;;;;;;;;;4.37;69.64;100924.50;4426788;32;20024;-69
2022/04/01 04:13:51;;;;;;;;;;;;;;;4.35;70.07;100932.47;4432237;32;20009;-69
2022/04/01 04:16:24;;;;;;;;;;;;;;;4.37;70.22;100930.06;4433319;32;20346;-69
2022/04/01 04:18:53;;;;;;;;;;;;;;;4.35;70.30;100933.25;4431536;32;19941;-69
2022/04/01 04:21:39;;;;;;;;;;;;;;;4.32;69.71;100936.81;4430238;32;19987;-69
2022/04/01 04:24:06;;;;;;;;;;;;;;;4.50;69.64;100943.25;4416157;32;20007;-69
2022/04/01 04:29:09;;;;;;;;;;;;;;;4.91;67.82;100932.63;3951688;32;15747481;-69
2022/04/01 04:31:36;;;;;;;;;;;;;;;4.91;67.82;100932.63;4435102;32;19987;-70
2022/04/01 04:34:02;;;;;;;;;;;;;;;4.30;69.56;100936.44;4436798;32;19963;-70
2022/04/01 04:36:36;;;;;;;;;;;;;;;4.32;69.36;100945.19;4434390;32;19961;-70
2022/04/01 04:39:05;;;;;;;;;;;;;;;4.32;69.59;100939.59;4435911;32;20367;-69
2022/04/01 04:41:32;;;;;;;;;;;;;;;4.08;70.28;100946.66;4437606;32;19957;-69
2022/04/01 04:43:58;;;;;;;;;;;;;;;4.12;69.79;100947.47;4435701;32;20337;-69
2022/04/01 04:46:25;;;;;;;;;;;;;;;4.17;69.91;100953.88;4437170;32;19959;-69
2022/04/01 04:48:53;;;;;;;;;;;;;;;4.21;69.97;100957.47;4437175;32;19971;-69
2022/04/01 04:51:21;;;;;;;;;;;;;;;4.06;70.43;100957.38;4434372;32;19998;-69
2022/04/01 04:53:47;;;;;;;;;;;;;;;3.93;70.82;100958.91;4432768;32;20342;-69
2022/04/01 04:56:13;;;;;;;;;;;;;;;3.90;70.98;100959.66;4435075;32;19984;-69
2022/04/01 04:58:40;;;;;;;;;;;;;;;3.98;70.55;100961.31;4433669;32;19946;-70
2022/04/01 05:01:25;;;;;;;;;;;;;;;4.06;70.44;100960.16;4435109;32;19967;-69
2022/04/01 05:04:11;;;;;;;;;;;;;;;4.02;70.51;100955.78;4433963;32;19949;-69
2022/04/01 05:06:39;;;;;;;;;;;;;;;4.05;70.45;100958.56;4433725;32;19996;-69
2022/04/01 05:09:25;;;;;;;;;;;;;;;3.96;70.68;100971.25;4434717;32;19983;-70
2022/04/01 05:17:15;;;;;;;;;;;;;;;4.51;69.56;100985.87;3954065;32;15723604;-69
2022/04/01 05:19:45;;;;;;;;;;;;;;;4.51;69.56;100985.87;4425437;32;19980;-69
2022/04/01 05:22:10;;;;;;;;;;;;;;;4.07;70.14;100978.50;4427453;32;19986;-69
2022/04/01 05:24:38;;;;;;;;;;;;;;;4.05;70.62;100985.59;4427867;32;20323;-69
2022/04/01 05:27:05;;;;;;;;;;;;;;;3.98;70.61;100980.00;4428849;32;20027;-69
2022/04/01 05:29:36;;;;;;;;;;;;;;;3.92;71.27;100987.94;4428920;32;19989;-69
2022/04/01 05:32:03;;;;;;;;;;;;;;;3.83;71.90;100995.81;4430265;32;19945;-69
2022/04/01 05:34:45;;;;;;;;;;;;;;;3.94;71.72;100990.34;4428466;32;20674;-69
2022/04/01 05:37:11;;;;;;;;;;;;;;;3.92;71.24;100999.06;4431057;32;19953;-69
2022/04/01 05:39:38;;;;;;;;;;;;;;;4.01;71.01;100996.75;4430743;32;20216;-69
2022/04/01 05:42:06;;;;;;;;;;;;;;;3.94;71.28;100990.34;4431369;32;19992;-69
2022/04/01 05:44:33;;;;;;;;;;;;;;;3.73;71.99;100999.34;4425737;32;19990;-69
2022/04/01 05:47:00;;;;;;;;;;;;;;;3.99;71.11;100992.75;4426753;32;20335;-69
2022/04/01 05:49:26;;;;;;;;;;;;;;;4.01;71.43;100998.72;4428293;32;19965;-69
2022/04/01 05:51:52;;;;;;;;;;;;;;;3.89;71.83;101004.59;4426459;32;19973;-69
2022/04/01 05:54:19;;;;;;;;;;;;;;;3.97;71.81;101014.62;4428261;32;20008;-69
2022/04/01 05:56:46;;;;;;;;;;;;;;;3.95;71.93;101012.22;4431062;32;20346;-69
2022/04/01 05:59:14;;;;;;;;;;;;;;;4.13;71.38;101018.72;4424867;32;19993;-69
2022/04/01 06:06:58;;;;;;;;;;;;;;;4.73;69.92;101034.94;3955097;32;15725352;-69
2022/04/01 06:09:44;;;;;;;;;;;;;;;4.73;69.92;101034.94;4429102;32;19992;-69
2022/04/01 06:12:18;;;;;;;;;;;;;;;4.36;70.27;101035.16;4429041;32;19993;-69
2022/04/01 06:14:54;;;;;;;;;;;;;;;4.39;70.20;101039.97;4427961;32;19977;-69
2022/04/01 06:17:24;;;;;;;;;;;;;;;4.43;69.88;101037.97;4431190;32;20329;-69
2022/04/01 06:19:51;;;;;;;;;;;;;;;4.49;69.89;101047.56;4429809;32;19965;-69
2022/04/01 06:22:20;;;;;;;;;;;;;;;4.50;70.02;101049.16;4428856;32;19971;-69
2022/04/01 06:24:55;;;;;;;;;;;;;;;4.29;70.45;101064.97;4429553;32;19953;-69
2022/04/01 06:27:24;;;;;;;;;;;;;;;4.33;70.19;101063.00;4426478;32;20045;-69
2022/04/01 06:30:03;;;;;;;;;;;;;;;4.39;70.68;101058.66;4427898;32;20414;-69
2022/04/01 06:32:37;;;;;;;;;;;;;;;4.50;69.90;101056.72;4425273;32;20011;-70
2022/04/01 06:37:42;;;;;;;;;;;;;;;5.28;67.64;101067.78;3940477;32;15726453;-70
2022/04/01 06:40:10;;;;;;;;;;;;;;;5.28;67.64;101067.78;4418355;32;19954;-70
2022/04/01 06:42:37;;;;;;;;;;;;;;;4.83;68.63;101060.06;4424922;32;20038;-70
2022/04/01 06:45:08;;;;;;;;;;;;;;;5.14;68.15;101064.97;4417713;32;20011;-71
2022/04/01 06:47:34;;;;;;;;;;;;;;;5.48;67.02;101063.47;4412932;32;19996;-70
2022/04/01 06:50:00;;;;;;;;;;;;;;;5.63;66.42;101073.44;4419653;32;19999;-68
2022/04/01 06:52:26;;;;;;;;;;;;;;;5.73;65.87;101074.63;4418905;32;20318;-70
2022/04/01 06:54:52;;;;;;;;;;;;;;;5.88;66.28;101076.28;4420476;32;20312;-70
2022/04/01 06:57:17;;;;;;;;;;;;;;;6.05;64.65;101078.28;4415307;32;19966;-70
2022/04/01 06:59:43;;;;;;;;;;;;;;;5.92;64.16;101077.06;4411979;32;19993;-70
2022/04/01 07:02:08;;;;;;;;;;;;;;;5.91;64.32;101083.84;4413276;32;20130;-69
2022/04/01 07:04:34;;;;;;;;;;;;;;;5.73;64.47;101103.38;4415199;32;20409;-69
2022/04/01 07:06:59;;;;;;;;;;;;;;;5.85;64.79;101100.22;4416831;32;20040;-69
2022/04/01 07:09:25;;;;;;;;;;;;;;;6.05;65.00;101104.22;4414979;32;19969;-70
2022/04/01 07:11:52;;;;;;;;;;;;;;;6.26;63.66;101092.22;4414686;32;20019;-69
2022/04/01 07:14:18;;;;;;;;;;;;;;;5.81;64.89;101109.75;4411504;32;20315;-70
2022/04/01 07:16:44;;;;;;;;;;;;;;;6.16;63.69;101098.63;4409934;32;20455;-70
2022/04/01 07:19:11;;;;;;;;;;;;;;;6.00;64.26;101098.22;4407163;32;20195;-70
2022/04/01 07:21:37;;;;;;;;;;;;;;;5.94;64.51;101108.22;4412629;32;20016;-70
2022/04/01 07:24:02;;;;;;;;;;;;;;;6.02;64.56;101096.62;4395387;32;20679;-70
2022/04/01 07:26:28;;;;;;;;;;;;;;;6.09;64.76;101107.00;4413706;32;20672;-70
2022/04/01 07:28:55;;;;;;;;;;;;;;;6.15;64.65;101105.41;4404835;32;20008;-70
2022/04/01 07:34:08;;;;;;;;;;;;;;;6.27;63.81;101112.59;4411206;32;20000;-70
2022/04/01 07:36:33;;;;;;;;;;;;;;;6.27;63.56;101107.00;4406098;32;20328;-70
2022/04/01 07:38:59;;;;;;;;;;;;;;;6.40;63.43;101122.97;4410707;32;19980;-70
2022/04/01 07:41:27;;;;;;;;;;;;;;;6.49;63.54;101125.34;4390976;32;20002;-70
2022/04/01 07:43:53;;;;;;;;;;;;;;;6.56;62.17;101134.53;4411001;32;20447;-71
2022/04/01 07:46:18;;;;;;;;;;;;;;;6.50;62.05;101130.53;4407487;32;20346;-70
2022/04/01 07:48:44;;;;;;;;;;;;;;;6.56;62.46;101145.69;4400302;32;19990;-70
2022/04/01 07:51:09;;;;;;;;;;;;;;;6.61;61.97;101145.31;4397922;32;19993;-70
2022/04/01 07:53:35;;;;;;;;;;;;;;;6.29;62.82;101144.53;4403916;32;19965;-70
2022/04/01 07:56:02;;;;;;;;;;;;;;;6.58;62.68;101148.09;4403635;32;19993;-71
2022/04/01 07:58:28;;;;;;;;;;;;;;;6.77;62.46;101144.88;4403751;32;20003;-70
2022/04/01 08:00:53;;;;;;;;;;;;;;;6.93;61.64;101157.22;4384315;32;20012;-70
2022/04/01 08:03:19;;;;;;;;;;;;;;;6.76;62.16;101143.28;4401612;32;19977;-70
2022/04/01 08:05:44;;;;;;;;;;;;;;;7.03;61.63;101147.97;4399887;32;19985;-71
2022/04/01 08:08:10;;;;;;;;;;;;;;;6.97;62.15;101154.41;4400361;32;20004;-70
2022/04/01 08:10:37;;;;;;;;;;;;;;;7.14;62.08;101154.34;4404250;32;19986;-71
2022/04/01 08:13:03;;;;;;;;;;;;;;;7.26;61.68;101161.50;4403171;32;20008;-71
2022/04/01 08:15:29;;;;;;;;;;;;;;;7.33;61.31;101167.88;4399098;32;20362;-71
2022/04/01 08:17:55;;;;;;;;;;;;;;;7.57;59.80;101160.56;4399044;32;20239;-71
2022/04/01 08:20:22;;;;;;;;;;;;;;;7.44;60.24;101170.62;4397768;32;19980;-71
2022/04/01 08:22:48;;;;;;;;;;;;;;;7.16;60.73;101173.53;4402053;32;20031;-71
2022/04/01 08:25:13;;;;;;;;;;;;;;;6.98;61.27;101178.38;4400551;32;20297;-71
2022/04/01 08:27:39;;;;;;;;;;;;;;;7.29;60.20;101181.09;4401186;32;20108;-71
2022/04/01 08:30:06;;;;;;;;;;;;;;;7.76;59.43;101180.47;4401114;32;20429;-71
2022/04/01 08:32:32;;;;;;;;;;;;;;;7.36;59.78;101181.06;4400504;32;20005;-71
2022/04/01 08:34:58;;;;;;;;;;;;;;;7.69;59.47;101174.09;4400606;32;20338;-72
2022/04/01 08:37:24;;;;;;;;;;;;;;;7.70;58.44;101176.50;4400575;32;20049;-71
2022/04/01 08:39:50;;;;;;;;;;;;;;;8.08;57.98;101181.06;4399397;32;19981;-71
2022/04/01 08:42:15;;;;;;;;;;;;;;;8.37;57.78;101181.69;4399121;32;20003;-72
2022/04/01 08:44:44;;;;;;;;;;;;;;;8.87;56.57;101185.63;4401420;32;20309;-72
2022/04/01 08:47:10;;;;;;;;;;;;;;;9.19;54.89;101199.31;4398015;32;19965;-72
2022/04/01 08:49:36;;;;;;;;;;;;;;;9.15;55.53;101201.38;4401055;32;20513;-71
2022/04/01 08:52:03;;;;;;;;;;;;;;;9.26;55.02;101211.28;4402419;32;19992;-71
2022/04/01 08:54:31;;;;;;;;;;;;;;;9.57;53.84;101212.91;4399376;32;19950;-71
2022/04/01 08:56:57;;;;;;;;;;;;;;;9.28;54.66;101206.03;4402100;32;19982;-71
2022/04/01 08:59:27;;;;;;;;;;;;;;;9.22;53.11;101216.16;4399891;32;20537;-71
2022/04/01 09:02:01;;;;;;;;;;;;;;;9.23;54.20;101214.91;4397087;32;20014;-72
2022/04/01 09:04:26;;;;;;;;;;;;;;;9.37;53.75;101214.78;4399556;32;20305;-71
2022/04/01 09:06:52;;;;;;;;;;;;;;;8.87;54.57;101224.91;4390841;32;20020;-71
2022/04/01 09:09:24;;;;;;;;;;;;;;;9.04;55.48;101211.91;4395576;32;20056;-71
2022/04/01 09:12:11;;;;;;;;;;;;;;;9.37;54.77;101216.78;4394455;32;20575;-71
2022/04/01 09:14:37;;;;;;;;;;;;;;;10.00;52.97;101228.00;4398031;32;20013;-71
2022/04/01 09:17:04;;;;;;;;;;;;;;;10.31;52.53;101225.19;4398913;32;20101;-71
2022/04/01 09:19:31;;;;;;;;;;;;;;;10.93;51.54;101223.34;4399786;32;19969;-71
2022/04/01 09:21:56;;;;;;;;;;;;;;;9.92;51.42;101223.69;4398333;32;19966;-71
2022/04/01 09:24:22;;;;;;;;;;;;;;;10.19;51.25;101217.31;4398554;32;20528;-71
2022/04/01 09:26:53;;;;;;;;;;;;;;;10.23;51.23;101220.88;4398691;32;20010;-71
2022/04/01 09:29:19;;;;;;;;;;;;;;;10.21;51.97;101218.47;4397644;32;20012;-71
2022/04/01 09:31:49;;;;;;;;;;;;;;;9.95;52.41;101231.28;4394849;32;19989;-71
2022/04/01 09:34:15;;;;;;;;;;;;;;;10.42;50.27;101220.97;4402625;32;20354;-71
2022/04/01 09:36:42;;;;;;;;;;;;;;;10.50;50.62;101230.09;4394407;32;20967;-71
2022/04/01 09:39:10;;;;;;;;;;;;;;;10.95;49.88;101229.31;4397623;32;19954;-71
2022/04/01 09:44:15;;;;;;;;;;;;;;;11.93;47.11;101240.69;3940048;32;15852903;-72
2022/04/01 09:46:43;;;;;;;;;;;;;;;11.93;47.11;101240.69;4416433;32;20012;-72
2022/04/01 09:49:08;;;;;;;;;;;;;;;11.35;48.75;101214.06;4412981;32;20244;-71
2022/04/01 09:51:34;;;;;;;;;;;;;;;11.79;46.35;101232.53;4412914;32;20580;-71
2022/04/01 09:54:02;;;;;;;;;;;;;;;11.41;46.88;101222.81;4412257;32;19993;-71
2022/04/01 09:56:36;;;;;;;;;;;;;;;11.32;47.30;101225.44;4412246;32;20363;-72
2022/04/01 09:59:03;;;;;;;;;;;;;;;10.93;47.73;101222.53;4412400;32;20020;-70
2022/04/01 10:01:28;;;;;;;;;;;;;;;10.87;48.60;101229.87;4411363;32;20004;-70
2022/04/01 10:03:55;;;;;;;;;;;;;;;11.09;48.71;101228.28;4411726;32;20664;-70
2022/04/01 10:06:21;;;;;;;;;;;;;;;11.08;48.02;101227.47;4414053;32;19997;-71
2022/04/01 10:08:47;;;;;;;;;;;;;;;11.38;46.48;101223.66;4413651;32;20488;-72
2022/04/01 10:11:13;;;;;;;;;;;;;;;11.88;47.87;101222.25;4413981;32;20358;-71
2022/04/01 10:13:39;;;;;;;;;;;;;;;12.58;45.52;101224.69;4416048;32;19981;-72
2022/04/01 10:16:07;;;;;;;;;;;;;;;12.27;44.96;101226.25;4413368;32;20035;-71
2022/04/01 10:18:34;;;;;;;;;;;;;;;12.51;44.91;101222.81;4414862;32;19966;-72
2022/04/01 10:21:01;;;;;;;;;;;;;;;11.59;45.75;101221.25;4415740;32;19973;-72
2022/04/01 10:23:27;;;;;;;;;;;;;;;11.15;47.17;101224.53;4415842;32;20374;-72
2022/04/01 10:26:03;;;;;;;;;;;;;;;12.06;46.31;101219.84;4412450;32;20417;-72
2022/04/01 10:28:29;;;;;;;;;;;;;;;12.24;44.60;101232.75;4413909;32;19958;-71
2022/04/01 10:30:56;;;;;;;;;;;;;;;11.58;45.40;101227.31;4414959;32;20228;-71
2022/04/01 10:33:23;;;;;;;;;;;;;;;11.62;45.97;101220.41;4409245;32;20324;-71
2022/04/01 10:35:50;;;;;;;;;;;;;;;11.15;46.23;101235.81;4415793;32;19985;-72
2022/04/01 10:38:18;;;;;;;;;;;;;;;10.78;47.02;101224.00;4413695;32;20021;-71
2022/04/01 10:40:45;;;;;;;;;;;;;;;10.85;47.65;101235.94;4415910;32;20466;-71
2022/04/01 10:43:13;;;;;;;;;;;;;;;10.57;46.49;101218.72;4414731;32;20236;-71
2022/04/01 10:45:40;;;;;;;;;;;;;;;10.39;47.32;101227.44;4415041;32;19962;-71
2022/04/01 10:53:51;;;;;;;;;;;;;;;12.95;42.48;101229.78;3969765;31;15716769;-72
2022/04/01 10:59:17;;;;;;;;;;;;;;;15.23;38.23;101234.13;3949875;32;15723349;-71
2022/04/01 11:04:36;;;;;;;;;;;;;;;14.77;36.27;101227.22;3955661;32;15727036;-72
2022/04/01 11:07:06;;;;;;;;;;;;;;;15.54;36.68;101221.66;4442393;32;19969;-72
2022/04/01 11:28:05;;;;;;;;;;;;;;;17.48;31.55;101217.38;3961175;32;15720403;-72
2022/04/01 11:33:09;;;;;;;;;;;;;;;16.02;31.71;101216.63;3948482;32;15724077;-72
2022/04/01 11:35:39;;;;;;;;;;;;;;;16.02;31.71;101216.63;4424840;32;19996;-72
2022/04/01 11:38:05;;;;;;;;;;;;;;;15.41;33.27;101215.22;4423601;32;20421;-73
2022/04/01 11:40:33;;;;;;;;;;;;;;;15.96;32.54;101200.16;4422252;32;20357;-72
2022/04/01 11:45:36;;;;;;;;;;;;;;;18.21;28.61;101201.75;3950399;32;15724099;-71
2022/04/01 11:48:13;;;;;;;;;;;;;;;18.21;28.61;101201.75;4426479;32;19972;-71
2022/04/01 11:50:41;;;;;;;;;;;;;;;17.92;29.70;101199.47;4424492;32;20031;-71
2022/04/01 11:53:08;;;;;;;;;;;;;;;17.61;29.63;101204.56;4422746;32;20020;-71
2022/04/01 11:55:42;;;;;;;;;;;;;;;15.77;30.32;101218.34;4411194;32;19961;-70
2022/04/01 11:58:07;;;;;;;;;;;;;;;15.83;31.05;101210.03;4425748;32;19946;-71
2022/04/01 12:00:33;;;;;;;;;;;;;;;15.13;32.41;101209.78;4425584;32;19990;-71
2022/04/01 12:02:59;;;;;;;;;;;;;;;16.11;32.11;101216.66;4426116;32;20017;-71
2022/04/01 12:05:29;;;;;;;;;;;;;;;16.15;31.11;101208.78;4420270;32;20003;-71
2022/04/01 12:10:41;;;;;;;;;;;;;;;15.70;31.25;101214.97;4421591;32;21022;-71
2022/04/01 12:13:09;;;;;;;;;;;;;;;14.95;30.11;101207.56;4425131;32;20307;-72
2022/04/01 12:18:12;;;;;;;;;;;;;;;18.20;28.52;101207.94;3948255;32;15725462;-72
2022/04/01 12:20:39;;;;;;;;;;;;;;;18.20;28.52;101207.94;4419703;32;19985;-72
2022/04/01 12:23:05;;;;;;;;;;;;;;;18.57;27.71;101204.50;4420272;32;20013;-72
2022/04/01 12:25:32;;;;;;;;;;;;;;;18.52;26.58;101205.12;4422932;32;19992;-72
2022/04/01 12:30:42;;;;;;;;;;;;;;;17.67;28.25;101213.25;3948159;32;15723260;-72
2022/04/01 12:33:10;;;;;;;;;;;;;;;17.67;28.25;101213.25;4431149;32;19964;-71
2022/04/01 12:35:55;;;;;;;;;;;;;;;16.60;29.85;101206.19;4430439;32;20446;-72
2022/04/01 12:38:21;;;;;;;;;;;;;;;16.43;30.54;101202.81;4432016;32;20747;-72
2022/04/01 12:43:43;;;;;;;;;;;;;;;17.82;27.04;101195.06;3949441;32;15722310;-72
2022/04/01 12:46:11;;;;;;;;;;;;;;;17.82;27.04;101195.06;4423438;32;20488;-72
2022/04/01 12:48:39;;;;;;;;;;;;;;;17.15;28.94;101194.44;4412669;32;20032;-71
2022/04/01 12:51:05;;;;;;;;;;;;;;;17.02;29.03;101196.63;4425142;32;19997;-71
2022/04/01 12:53:30;;;;;;;;;;;;;;;16.32;27.71;101193.09;4424442;32;20256;-71
2022/04/01 12:56:17;;;;;;;;;;;;;;;15.43;29.52;101200.59;4424180;32;20000;-72
2022/04/01 12:58:50;;;;;;;;;;;;;;;15.85;30.02;101196.97;4422659;32;19976;-70
2022/04/01 13:01:20;;;;;;;;;;;;;;;17.01;29.45;101183.69;4425205;32;20318;-70
2022/04/01 13:03:47;;;;;;;;;;;;;;;17.65;28.13;101196.66;4424552;32;19972;-70
2022/04/01 13:06:14;;;;;;;;;;;;;;;17.38;28.41;101195.87;4424553;32;20361;-70
2022/04/01 13:08:39;;;;;;;;;;;;;;;17.18;28.38;101195.56;4424571;32;21055;-70
2022/04/01 13:11:11;;;;;;;;;;;;;;;16.66;31.09;101198.63;4424338;32;19997;-70
2022/04/01 13:13:36;;;;;;;;;;;;;;;16.35;31.94;101189.34;4422375;32;19985;-70
2022/04/01 13:16:02;;;;;;;;;;;;;;;16.51;32.19;101200.47;4425768;32;19958;-70
2022/04/01 13:18:30;;;;;;;;;;;;;;;17.23;31.37;101190.03;4425991;32;19953;-70
2022/04/01 13:20:56;;;;;;;;;;;;;;;17.64;28.69;101191.44;4423866;32;20043;-70
2022/04/01 13:23:22;;;;;;;;;;;;;;;16.43;28.92;101184.94;4424153;32;20329;-70
2022/04/01 13:25:47;;;;;;;;;;;;;;;15.96;29.84;101185.22;4423747;32;19957;-70
2022/04/01 13:28:15;;;;;;;;;;;;;;;16.24;28.27;101191.78;4425945;32;20005;-70
2022/04/01 13:30:41;;;;;;;;;;;;;;;17.91;26.64;101205.63;4423724;32;20007;-71
2022/04/01 13:33:07;;;;;;;;;;;;;;;19.45;25.32;101200.72;4426380;32;20255;-70
2022/04/01 13:35:33;;;;;;;;;;;;;;;19.66;25.52;101205.31;4424458;32;20005;-70
2022/04/01 13:37:59;;;;;;;;;;;;;;;21.17;22.92;101190.13;4422899;32;20292;-70
2022/04/01 13:40:25;;;;;;;;;;;;;;;19.43;23.65;101205.38;4424570;32;19953;-70
2022/04/01 13:42:52;;;;;;;;;;;;;;;21.08;22.61;101201.72;4425259;32;19953;-71
2022/04/01 13:45:18;;;;;;;;;;;;;;;21.83;21.78;101196.63;4423633;32;20011;-70
2022/04/01 13:47:44;;;;;;;;;;;;;;;23.07;20.84;101195.78;4423586;32;20030;-71
2022/04/01 13:50:10;;;;;;;;;;;;;;;22.22;21.97;101199.84;4424812;32;20008;-70
2022/04/01 13:52:36;;;;;;;;;;;;;;;20.47;22.85;101191.41;4419712;32;20007;-69
2022/04/01 13:55:02;;;;;;;;;;;;;;;19.96;23.81;101200.41;4412195;32;20366;-71
2022/04/01 13:57:28;;;;;;;;;;;;;;;18.52;25.53;101199.44;4410817;32;20012;-72